createdAt,value
2023-04-27T00:01:14.421Z,7.50
2023-04-27T00:03:42.145Z,8.00
2023-04-27T00:06:11.602Z,8.50
2023-04-27T00:08:38.220Z,9.40
2023-04-27T00:11:05.266Z,9.50
2023-04-27T00:13:31.835Z,8.80
2023-04-27T00:16:02.532Z,9.20
2023-04-27T00:18:30.421Z,8.60
2023-04-27T00:20:57.022Z,8.90
2023-04-27T00:23:23.673Z,8.90
2023-04-27T00:25:50.175Z,9.00
2023-04-27T00:28:16.818Z,9.90
2023-04-27T00:30:44.495Z,9.80
2023-04-27T00:33:11.110Z,9.70
2023-04-27T00:35:37.591Z,9.80
2023-04-27T00:38:04.095Z,9.20
2023-04-27T00:40:30.770Z,7.90
2023-04-27T00:42:57.275Z,8.60
2023-04-27T00:45:25.145Z,8.80
2023-04-27T00:47:51.817Z,8.80
2023-04-27T00:50:27.773Z,8.50
2023-04-27T00:52:56.046Z,9.40
2023-04-27T00:55:25.272Z,8.90
2023-04-27T00:57:51.820Z,7.80
2023-04-27T01:00:18.454Z,7.70
2023-04-27T01:02:45.468Z,7.10
2023-04-27T01:05:12.695Z,7.30
2023-04-27T01:07:40.336Z,8.30
2023-04-27T01:10:07.991Z,7.30
2023-04-27T01:12:35.771Z,7.50
2023-04-27T01:15:06.000Z,6.80
2023-04-27T01:17:32.579Z,7.30
2023-04-27T01:19:59.545Z,7.60
2023-04-27T01:22:26.395Z,7.00
2023-04-27T01:24:53.359Z,8.00
2023-04-27T01:27:20.385Z,7.50
2023-04-27T01:29:46.944Z,7.00
2023-04-27T01:32:13.618Z,7.20
2023-04-27T01:34:40.212Z,6.90
2023-04-27T01:37:06.734Z,7.10
2023-04-27T01:39:33.288Z,6.90
2023-04-27T01:42:02.909Z,6.50
2023-04-27T01:44:29.781Z,6.70
2023-04-27T01:46:56.318Z,6.60
2023-04-27T01:49:22.788Z,7.50
2023-04-27T01:51:49.370Z,7.70
2023-04-27T01:54:16.301Z,8.90
2023-04-27T01:56:43.094Z,8.70
2023-04-27T01:59:09.718Z,8.70
2023-04-27T02:01:36.285Z,9.10
2023-04-27T02:04:03.674Z,8.30
2023-04-27T02:06:30.692Z,8.90
2023-04-27T02:08:57.325Z,9.50
2023-04-27T02:11:23.942Z,10.20
2023-04-27T02:13:50.715Z,8.90
2023-04-27T02:16:17.441Z,9.20
2023-04-27T02:18:44.029Z,7.80
2023-04-27T02:21:11.051Z,7.30
2023-04-27T02:23:37.725Z,7.60
2023-04-27T02:26:04.419Z,7.10
2023-04-27T02:28:31.680Z,7.50
2023-04-27T02:31:00.842Z,7.20
2023-04-27T02:33:27.381Z,7.00
2023-04-27T02:35:53.890Z,6.80
2023-04-27T02:38:22.175Z,7.30
2023-04-27T02:40:53.200Z,6.90
2023-04-27T02:43:20.486Z,7.00
2023-04-27T02:45:47.337Z,5.80
2023-04-27T02:48:13.860Z,6.90
2023-04-27T02:50:41.700Z,6.80
2023-04-27T02:53:08.693Z,6.60
2023-04-27T02:55:35.199Z,6.00
2023-04-27T02:58:01.902Z,5.80
2023-04-27T03:00:28.805Z,6.00
2023-04-27T03:02:55.868Z,6.20
2023-04-27T03:05:25.663Z,6.70
2023-04-27T03:07:52.222Z,6.10
2023-04-27T03:10:18.822Z,6.10
2023-04-27T03:12:45.351Z,5.60
2023-04-27T03:15:11.839Z,5.50
2023-04-27T03:17:38.413Z,6.00
2023-04-27T03:20:09.162Z,6.70
2023-04-27T03:22:36.485Z,6.10
2023-04-27T03:25:03.376Z,6.30
2023-04-27T03:27:30.190Z,6.20
2023-04-27T03:29:56.641Z,6.40
2023-04-27T03:32:23.180Z,7.30
2023-04-27T03:34:49.993Z,7.20
2023-04-27T03:37:17.376Z,7.80
2023-04-27T03:39:44.517Z,7.40
2023-04-27T03:42:11.193Z,7.40
2023-04-27T03:44:37.750Z,7.80
2023-04-27T03:47:08.495Z,8.10
2023-04-27T03:49:35.887Z,7.60
2023-04-27T03:52:03.011Z,7.30
2023-04-27T03:54:32.851Z,7.20
2023-04-27T03:56:59.420Z,7.10
2023-04-27T03:59:29.472Z,7.70
2023-04-27T04:04:24.037Z,6.20
2023-04-27T04:06:50.924Z,6.70
2023-04-27T04:09:17.440Z,6.80
2023-04-27T04:11:44.037Z,6.80
2023-04-27T04:14:11.928Z,6.00
2023-04-27T04:16:39.989Z,5.50
2023-04-27T04:19:06.680Z,5.10
2023-04-27T04:21:33.330Z,4.90
2023-04-27T04:23:59.829Z,6.10
2023-04-27T04:26:26.684Z,5.00
2023-04-27T04:28:53.314Z,5.20
2023-04-27T04:31:21.372Z,5.60
2023-04-27T04:33:48.219Z,7.00
2023-04-27T04:36:15.284Z,7.30
2023-04-27T04:38:41.835Z,8.40
2023-04-27T04:41:09.985Z,9.10
2023-04-27T04:43:36.917Z,8.20
2023-04-27T04:46:05.797Z,7.40
2023-04-27T04:48:34.306Z,7.10
2023-04-27T04:51:00.857Z,7.50
2023-04-27T04:53:28.968Z,7.30
2023-04-27T04:55:55.861Z,6.10
2023-04-27T04:58:22.390Z,5.90
2023-04-27T05:00:48.924Z,4.90
2023-04-27T05:03:16.055Z,4.50
2023-04-27T05:05:42.697Z,4.60
2023-04-27T05:08:09.253Z,4.60
2023-04-27T05:10:35.812Z,4.50
2023-04-27T05:13:02.372Z,4.90
2023-04-27T05:15:29.035Z,4.50
2023-04-27T05:17:55.516Z,4.40
2023-04-27T05:20:22.102Z,4.80
2023-04-27T05:22:48.650Z,4.00
2023-04-27T05:25:15.252Z,4.00
2023-04-27T05:27:42.071Z,4.00
2023-04-27T05:30:09.056Z,3.20
2023-04-27T05:32:36.657Z,3.80
2023-04-27T05:35:04.428Z,3.20
2023-04-27T05:37:30.986Z,3.80
2023-04-27T05:39:57.556Z,3.40
2023-04-27T05:42:24.208Z,4.00
2023-04-27T05:44:50.723Z,3.30
2023-04-27T05:47:17.295Z,3.90
2023-04-27T05:49:44.010Z,3.70
2023-04-27T05:52:10.467Z,3.60
2023-04-27T05:54:36.967Z,3.40
2023-04-27T05:57:03.489Z,3.50
2023-04-27T05:59:29.988Z,3.00
2023-04-27T06:01:56.572Z,3.40
2023-04-27T06:04:23.288Z,3.10
2023-04-27T06:06:50.078Z,2.90
2023-04-27T06:09:16.703Z,3.30
2023-04-27T06:11:44.197Z,3.10
2023-04-27T06:14:10.707Z,2.90
2023-04-27T06:16:37.170Z,3.90
2023-04-27T06:19:03.787Z,3.70
2023-04-27T06:21:32.905Z,3.60
2023-04-27T06:24:00.483Z,3.00
2023-04-27T06:26:27.661Z,3.90
2023-04-27T06:28:54.376Z,3.60
2023-04-27T06:31:21.135Z,4.30
2023-04-27T06:33:47.712Z,5.80
2023-04-27T06:36:14.196Z,5.00
2023-04-27T06:38:40.749Z,4.10
2023-04-27T06:41:07.242Z,3.30
2023-04-27T06:43:33.808Z,3.40
2023-04-27T06:46:00.626Z,3.20
2023-04-27T06:48:27.332Z,3.50
2023-04-27T06:50:53.993Z,2.90
2023-04-27T06:53:20.954Z,3.20
2023-04-27T06:55:48.623Z,3.20
2023-04-27T06:58:15.407Z,3.20
2023-04-27T07:00:41.924Z,3.40
2023-04-27T07:03:08.595Z,3.40
2023-04-27T07:05:35.352Z,2.80
2023-04-27T07:08:05.393Z,3.10
2023-04-27T07:10:33.746Z,3.50
2023-04-27T07:13:00.268Z,3.30
2023-04-27T07:15:26.894Z,3.20
2023-04-27T07:17:53.512Z,2.90
2023-04-27T07:20:20.322Z,2.40
2023-04-27T07:22:46.938Z,2.90
2023-04-27T07:25:13.574Z,3.20
2023-04-27T07:27:40.865Z,3.30
2023-04-27T07:30:09.409Z,3.60
2023-04-27T07:32:38.508Z,4.30
2023-04-27T07:35:05.620Z,4.40
2023-04-27T07:37:32.187Z,4.90
2023-04-27T07:39:59.049Z,5.50
2023-04-27T07:42:25.551Z,5.40
2023-04-27T07:44:52.650Z,6.40
2023-04-27T07:47:19.329Z,5.80
2023-04-27T07:49:46.547Z,5.10
2023-04-27T07:52:13.660Z,5.40
2023-04-27T07:54:40.388Z,4.60
2023-04-27T07:57:13.509Z,6.30
2023-04-27T07:59:40.322Z,8.10
2023-04-27T08:02:17.666Z,7.20
2023-04-27T08:04:47.274Z,7.10
2023-04-27T08:07:16.021Z,6.20
2023-04-27T08:09:42.897Z,6.90
2023-04-27T08:12:09.469Z,6.80
2023-04-27T08:14:36.199Z,6.60
2023-04-27T08:17:02.898Z,6.40
2023-04-27T08:19:29.546Z,6.90
2023-04-27T08:21:56.140Z,6.30
2023-04-27T08:24:23.049Z,6.00
2023-04-27T08:26:49.656Z,6.20
2023-04-27T08:29:27.075Z,5.70
2023-04-27T08:31:57.972Z,4.90
2023-04-27T08:34:25.074Z,5.40
2023-04-27T08:36:53.377Z,5.30
2023-04-27T08:39:20.500Z,6.40
2023-04-27T08:41:47.028Z,6.00
2023-04-27T08:44:13.637Z,5.90
2023-04-27T08:46:40.338Z,6.40
2023-04-27T08:49:07.045Z,6.20
2023-04-27T08:51:34.094Z,6.40
2023-04-27T08:54:00.727Z,5.50
2023-04-27T08:56:29.705Z,5.60
2023-04-27T08:58:57.848Z,6.30
2023-04-27T09:01:25.626Z,7.00
2023-04-27T09:04:00.256Z,5.50
2023-04-27T09:06:34.582Z,5.10
2023-04-27T09:09:03.638Z,7.00
2023-04-27T09:11:37.739Z,6.00
2023-04-27T09:14:22.473Z,6.30
2023-04-27T09:16:57.261Z,6.90
2023-04-27T09:19:28.830Z,5.80
2023-04-27T09:22:04.953Z,6.20
2023-04-27T09:24:31.583Z,6.80
2023-04-27T09:27:00.179Z,6.90
2023-04-27T09:29:37.541Z,5.80
2023-04-27T09:32:16.979Z,8.60
2023-04-27T09:34:44.491Z,6.60
2023-04-27T09:37:12.054Z,5.70
2023-04-27T09:39:39.245Z,5.50
2023-04-27T09:42:05.808Z,7.60
2023-04-27T09:44:33.719Z,6.90
2023-04-27T09:47:00.970Z,5.10
2023-04-27T09:49:28.567Z,5.40
2023-04-27T09:51:58.070Z,5.20
2023-04-27T09:54:29.585Z,5.90
2023-04-27T09:57:08.698Z,5.20
2023-04-27T09:59:47.467Z,5.40
2023-04-27T10:02:25.211Z,6.40
2023-04-27T10:05:21.334Z,5.70
2023-04-27T10:07:48.774Z,5.10
2023-04-27T10:10:17.873Z,5.00
2023-04-27T10:13:00.619Z,4.60
2023-04-27T10:15:29.158Z,4.50
2023-04-27T10:17:59.337Z,4.90
2023-04-27T10:20:31.172Z,5.20
2023-04-27T10:22:59.547Z,4.20
2023-04-27T10:25:29.070Z,4.20
2023-04-27T10:27:57.585Z,2.40
2023-04-27T10:30:30.674Z,2.50
2023-04-27T10:32:59.797Z,2.60
2023-04-27T10:35:57.329Z,2.70
2023-04-27T10:38:30.138Z,2.70
2023-04-27T10:41:02.411Z,2.70
2023-04-27T10:43:31.555Z,3.20
2023-04-27T10:46:12.116Z,3.60
2023-04-27T10:48:40.454Z,3.40
2023-04-27T10:51:07.367Z,3.90
2023-04-27T10:53:36.938Z,4.00
2023-04-27T10:56:06.098Z,4.30
2023-04-27T10:58:47.550Z,3.60
2023-04-27T11:01:26.420Z,3.50
2023-04-27T11:04:00.381Z,3.80
2023-04-27T11:06:34.254Z,3.60
2023-04-27T11:09:01.065Z,3.70
2023-04-27T11:11:27.629Z,3.10
2023-04-27T11:13:55.346Z,3.70
2023-04-27T11:16:22.526Z,3.20
2023-04-27T11:18:49.183Z,3.20
2023-04-27T11:21:17.911Z,3.60
2023-04-27T11:23:44.450Z,4.80
2023-04-27T11:26:13.899Z,5.20
2023-04-27T11:28:44.415Z,5.90
2023-04-27T11:31:11.146Z,4.80
2023-04-27T11:33:39.566Z,5.30
2023-04-27T11:36:20.542Z,5.00
2023-04-27T11:38:47.260Z,5.70
2023-04-27T11:41:14.207Z,5.20
2023-04-27T11:43:42.633Z,5.60
2023-04-27T11:46:12.583Z,5.60
2023-04-27T11:48:39.300Z,5.20
2023-04-27T11:51:07.106Z,4.20
2023-04-27T11:53:35.854Z,5.90
2023-04-27T11:56:07.302Z,4.90
2023-04-27T11:58:35.504Z,4.30
2023-04-27T12:01:03.652Z,4.10
2023-04-27T12:03:31.235Z,4.00
2023-04-27T12:06:04.051Z,4.50
2023-04-27T12:08:38.564Z,4.30
2023-04-27T12:11:05.187Z,4.20
2023-04-27T12:13:31.766Z,3.50
2023-04-27T12:15:59.154Z,5.50
2023-04-27T12:18:27.599Z,4.70
2023-04-27T12:20:54.129Z,4.50
2023-04-27T12:23:20.619Z,3.90
2023-04-27T12:25:47.822Z,4.50
2023-04-27T12:28:18.332Z,4.30
2023-04-27T12:30:45.371Z,4.60
2023-04-27T12:33:11.989Z,4.10
2023-04-27T12:35:38.648Z,4.20
2023-04-27T12:38:05.210Z,4.60
2023-04-27T12:40:32.668Z,4.00
2023-04-27T12:43:01.017Z,4.00
2023-04-27T12:45:28.029Z,3.80
2023-04-27T12:48:03.273Z,5.30
2023-04-27T12:50:36.141Z,3.80
2023-04-27T12:53:03.044Z,3.90
2023-04-27T12:55:32.880Z,4.20
2023-04-27T12:58:01.436Z,4.80
2023-04-27T13:00:28.917Z,4.10
2023-04-27T13:02:55.973Z,4.30
2023-04-27T13:05:22.676Z,4.00
2023-04-27T13:07:49.237Z,4.30
2023-04-27T13:10:15.986Z,4.30
2023-04-27T13:12:42.910Z,3.90
2023-04-27T13:15:10.217Z,3.70
2023-04-27T13:17:36.791Z,3.90
2023-04-27T13:20:03.672Z,3.40
2023-04-27T13:22:30.172Z,3.70
2023-04-27T13:24:57.270Z,4.40
2023-04-27T13:27:24.979Z,3.80
2023-04-27T13:29:51.497Z,3.50
2023-04-27T13:32:18.017Z,3.60
2023-04-27T13:34:44.790Z,4.00
2023-04-27T13:37:11.407Z,3.80
2023-04-27T13:39:37.985Z,4.20
2023-04-27T13:42:05.031Z,4.20
2023-04-27T13:44:31.947Z,4.60
2023-04-27T13:46:58.556Z,3.40
2023-04-27T13:49:25.254Z,3.70
2023-04-27T13:51:51.857Z,3.90
2023-04-27T13:54:19.445Z,4.30
2023-04-27T13:56:46.006Z,3.90
2023-04-27T13:59:12.753Z,4.50
2023-04-27T14:01:39.623Z,4.40
2023-04-27T14:04:06.699Z,4.00
2023-04-27T14:06:33.419Z,4.30
2023-04-27T14:08:59.965Z,3.70
2023-04-27T14:11:26.565Z,4.40
2023-04-27T14:13:53.131Z,3.90
2023-04-27T14:16:20.375Z,4.20
2023-04-27T14:18:46.928Z,4.40
2023-04-27T14:21:13.495Z,5.50
2023-04-27T14:23:40.302Z,5.40
2023-04-27T14:26:06.861Z,5.60
2023-04-27T14:28:33.938Z,5.60
2023-04-27T14:31:00.445Z,12.10
2023-04-27T14:33:26.944Z,6.20
2023-04-27T14:35:53.788Z,5.60
2023-04-27T14:38:20.346Z,5.00
2023-04-27T14:40:46.901Z,4.70
2023-04-27T14:43:13.595Z,6.60
2023-04-27T14:45:51.111Z,4.80
2023-04-27T14:48:20.919Z,4.50
2023-04-27T14:50:47.430Z,5.70
2023-04-27T14:53:14.050Z,4.00
2023-04-27T14:55:42.725Z,4.60
2023-04-27T14:58:09.255Z,4.40
2023-04-27T15:00:35.847Z,4.70
2023-04-27T15:03:02.589Z,4.90
2023-04-27T15:05:29.982Z,4.70
2023-04-27T15:07:56.647Z,5.20
2023-04-27T15:10:23.120Z,5.10
2023-04-27T15:12:49.655Z,4.70
2023-04-27T15:15:16.338Z,4.50
2023-04-27T15:17:43.012Z,4.60
2023-04-27T15:20:10.264Z,4.10
2023-04-27T15:22:36.785Z,4.60
2023-04-27T15:25:03.866Z,5.00
2023-04-27T15:27:30.453Z,4.50
2023-04-27T15:29:57.965Z,5.00
2023-04-27T15:32:29.189Z,5.00
2023-04-27T15:34:59.253Z,4.50
2023-04-27T15:37:27.803Z,4.60
2023-04-27T15:39:54.836Z,5.20
2023-04-27T15:42:46.548Z,5.20
2023-04-27T15:45:13.168Z,5.10
2023-04-27T15:47:39.826Z,4.00
2023-04-27T15:50:07.478Z,4.10
2023-04-27T15:52:33.990Z,3.70
2023-04-27T15:55:00.700Z,4.50
2023-04-27T15:57:27.269Z,4.30
2023-04-27T15:59:53.928Z,4.90
2023-04-27T16:02:20.664Z,4.60
2023-04-27T16:04:48.543Z,4.90
2023-04-27T16:07:15.131Z,4.80
2023-04-27T16:09:41.766Z,4.40
2023-04-27T16:12:08.315Z,4.30
2023-04-27T16:14:34.979Z,4.40
2023-04-27T16:17:01.707Z,4.50
2023-04-27T16:19:28.440Z,5.10
2023-04-27T16:21:55.370Z,5.50
2023-04-27T16:24:21.965Z,4.90
2023-04-27T16:26:48.504Z,4.80
2023-04-27T16:29:15.290Z,4.70
2023-04-27T16:31:42.467Z,5.00
2023-04-27T16:34:09.003Z,4.70
2023-04-27T16:36:36.027Z,4.40
2023-04-27T16:39:04.345Z,4.60
2023-04-27T16:41:30.882Z,8.50
2023-04-27T16:43:57.565Z,5.80
2023-04-27T16:46:24.169Z,7.70
2023-04-27T16:48:50.723Z,5.80
2023-04-27T16:51:17.339Z,6.20
2023-04-27T16:53:43.857Z,6.00
2023-04-27T16:56:12.815Z,5.50
2023-04-27T16:58:39.924Z,5.80
2023-04-27T17:01:06.522Z,5.60
2023-04-27T17:03:35.283Z,5.70
2023-04-27T17:06:02.450Z,5.40
2023-04-27T17:08:29.084Z,6.50
2023-04-27T17:10:55.680Z,8.00
2023-04-27T17:13:22.211Z,9.40
2023-04-27T17:15:49.984Z,10.10
2023-04-27T17:18:17.047Z,7.50
2023-04-27T17:20:43.713Z,5.50
2023-04-27T17:23:10.446Z,5.90
2023-04-27T17:25:36.963Z,6.20
2023-04-27T17:28:03.578Z,6.50
2023-04-27T17:30:30.402Z,8.50
2023-04-27T17:32:57.272Z,14.20
2023-04-27T17:35:24.186Z,19.20
2023-04-27T17:37:51.199Z,8.90
2023-04-27T17:40:20.165Z,10.10
2023-04-27T17:42:46.858Z,6.70
2023-04-27T17:45:13.357Z,8.70
2023-04-27T17:47:40.265Z,8.10
2023-04-27T17:50:08.086Z,9.70
2023-04-27T17:52:35.083Z,7.60
2023-04-27T17:55:01.594Z,6.40
2023-04-27T17:57:28.122Z,5.20
2023-04-27T17:59:54.724Z,6.50
2023-04-27T18:02:21.456Z,6.50
2023-04-27T18:04:48.366Z,7.40
2023-04-27T18:07:17.805Z,9.60
2023-04-27T18:09:44.709Z,9.60
2023-04-27T18:12:11.412Z,13.80
2023-04-27T18:14:38.095Z,13.20
2023-04-27T18:17:05.257Z,12.70
2023-04-27T18:19:31.847Z,12.70
2023-04-27T18:21:58.607Z,14.30
2023-04-27T18:24:25.203Z,33.40
2023-04-27T18:26:51.886Z,25.80
2023-04-27T18:29:18.799Z,25.40
2023-04-27T18:31:45.524Z,19.30
2023-04-27T18:34:12.529Z,16.90
2023-04-27T18:36:39.241Z,14.10
2023-04-27T18:39:05.937Z,13.00
2023-04-27T18:41:32.509Z,15.30
2023-04-27T18:44:04.251Z,16.10
2023-04-27T18:46:31.764Z,17.40
2023-04-27T18:48:58.769Z,16.20
2023-04-27T18:51:25.749Z,19.60
2023-04-27T18:53:52.955Z,21.40
2023-04-27T18:56:19.595Z,23.30
2023-04-27T18:58:48.110Z,24.40
2023-04-27T19:01:29.568Z,22.80
2023-04-27T19:03:57.292Z,22.70
2023-04-27T19:06:24.654Z,25.80
2023-04-27T19:08:51.421Z,24.90
2023-04-27T19:11:21.673Z,23.80
2023-04-27T19:13:49.901Z,26.40
2023-04-27T19:16:17.474Z,26.80
2023-04-27T19:18:44.382Z,23.90
2023-04-27T19:21:12.959Z,26.80
2023-04-27T19:23:39.774Z,27.80
2023-04-27T19:26:12.909Z,28.60
2023-04-27T19:28:40.514Z,28.10
2023-04-27T19:31:07.308Z,31.50
2023-04-27T19:36:56.138Z,23.40
2023-04-27T19:39:22.714Z,27.00
2023-04-27T19:41:49.329Z,26.30
2023-04-27T19:44:16.121Z,25.50
2023-04-27T19:46:43.102Z,23.60
2023-04-27T19:49:09.893Z,21.50
2023-04-27T19:51:36.526Z,25.40
2023-04-27T19:54:03.260Z,23.00
2023-04-27T19:56:29.961Z,23.00
2023-04-27T19:58:56.630Z,24.00
2023-04-27T20:01:23.183Z,26.90
2023-04-27T20:03:52.723Z,25.80
2023-04-27T20:06:21.232Z,27.90
2023-04-27T20:08:48.779Z,33.30
2023-04-27T20:11:16.477Z,40.30
2023-04-27T20:13:43.178Z,41.10
2023-04-27T20:16:10.064Z,43.40
2023-04-27T20:18:37.321Z,50.50
2023-04-27T20:21:04.120Z,44.20
2023-04-27T20:23:30.865Z,55.90
2023-04-27T20:25:57.381Z,58.90
2023-04-27T20:28:24.001Z,61.30
2023-04-27T20:30:50.583Z,61.90
2023-04-27T20:33:17.740Z,57.00
2023-04-27T20:35:46.096Z,59.30
2023-04-27T20:38:12.886Z,55.90
2023-04-27T20:40:41.338Z,49.10
2023-04-27T20:43:08.228Z,48.50
2023-04-27T20:45:34.937Z,46.80
2023-04-27T20:48:02.555Z,46.30
2023-04-27T20:50:29.209Z,47.60
2023-04-27T20:52:55.760Z,49.10
2023-04-27T20:55:22.351Z,51.40
2023-04-27T20:57:48.917Z,53.00
2023-04-27T21:00:16.390Z,52.90
2023-04-27T21:02:43.056Z,53.30
2023-04-27T21:05:09.772Z,52.30
2023-04-27T21:07:36.396Z,53.30
2023-04-27T21:10:05.526Z,51.80
2023-04-27T21:12:33.106Z,51.20
2023-04-27T21:15:00.706Z,50.20
2023-04-27T21:17:27.755Z,51.30
2023-04-27T21:19:55.547Z,51.30
2023-04-27T21:22:22.298Z,52.10
2023-04-27T21:24:48.980Z,49.80
2023-04-27T21:27:15.636Z,49.00
2023-04-27T21:29:42.168Z,49.90
2023-04-27T21:32:08.858Z,47.10
2023-04-27T21:34:35.415Z,44.00
2023-04-27T21:37:01.977Z,44.40
2023-04-27T21:39:28.582Z,41.70
2023-04-27T21:41:55.144Z,46.30
2023-04-27T21:44:21.673Z,49.20
2023-04-27T21:46:48.382Z,43.80
2023-04-27T21:49:15.094Z,44.40
2023-04-27T21:51:41.699Z,44.30
2023-04-27T21:54:08.342Z,44.40
2023-04-27T21:56:34.916Z,50.60
2023-04-27T21:59:01.474Z,49.60
2023-04-27T22:01:28.147Z,46.90
2023-04-27T22:03:55.158Z,45.90
2023-04-27T22:06:21.987Z,46.80
2023-04-27T22:08:48.631Z,47.60
2023-04-27T22:11:15.196Z,53.40
2023-04-27T22:13:41.934Z,51.10
2023-04-27T22:16:08.588Z,55.70
2023-04-27T22:18:35.203Z,51.70
2023-04-27T22:21:01.869Z,51.20
2023-04-27T22:23:30.123Z,53.80
2023-04-27T22:25:56.674Z,54.10
2023-04-27T22:28:23.323Z,52.80
2023-04-27T22:30:49.991Z,52.60
2023-04-27T22:33:16.866Z,52.40
2023-04-27T22:35:44.207Z,53.80
2023-04-27T22:38:10.808Z,52.60
2023-04-27T22:40:37.665Z,48.10
2023-04-27T22:43:04.315Z,43.70
2023-04-27T22:45:31.340Z,42.50
2023-04-27T22:47:57.925Z,43.00
2023-04-27T22:50:24.533Z,42.30
2023-04-27T22:52:52.310Z,45.50
2023-04-27T22:55:18.864Z,46.00
2023-04-27T22:57:45.515Z,45.60
2023-04-27T23:00:12.393Z,40.60
2023-04-27T23:02:40.076Z,41.10
2023-04-27T23:05:07.285Z,40.60
2023-04-27T23:07:34.468Z,40.90
2023-04-27T23:10:02.367Z,37.90
2023-04-27T23:12:30.136Z,36.10
2023-04-27T23:14:59.871Z,34.90
2023-04-27T23:17:32.419Z,35.20
2023-04-27T23:20:00.946Z,33.80
2023-04-27T23:22:28.001Z,32.00
2023-04-27T23:24:54.823Z,30.30
2023-04-27T23:27:23.910Z,29.40
2023-04-27T23:29:50.690Z,28.60
2023-04-27T23:32:17.329Z,28.10
2023-04-27T23:34:43.912Z,28.50
2023-04-27T23:37:10.638Z,28.10
2023-04-27T23:39:37.736Z,26.90
2023-04-27T23:42:04.554Z,28.10
2023-04-27T23:44:31.183Z,28.40
2023-04-27T23:46:57.698Z,27.90
2023-04-27T23:49:24.223Z,30.00
2023-04-27T23:51:52.013Z,31.00
2023-04-27T23:54:18.780Z,32.40
2023-04-27T23:56:45.490Z,33.80
2023-04-27T23:59:14.232Z,33.20
